Pomona, Illinois
Current Conditions -  °F | °C
As of 3:36 PM on Wednesday 26 Nov 2014 (Local Time) from KMDH Reporting Station
Light Snow Light Snow  
Wind Chill: 34°   Ceiling: 600
Heat Index: 34°   Visibility: 1.5mi
Dew Point: 32°   Wind: 0mph
Humidity: 92%   Direction: NA
Pressure: 30.02"   Gusts: NA
Location:  37.63°N, 89.34°W
Report Text: KMDH 262136Z AUTO 00000KT 1 1/2SM -SN BR OVC006 01/00 A3002 RMK AO2 RAE14SNB14 P0005 T00110000
Loading
Personal Weather Stations






























Interactive Weather Map New forecast layout! Learn more

10-Day Weather Forecast

Advertisements
Track Severe Weather on mobile